Time;durP1;ratioP1;P1;durP2;ratioP2;P2;SDS_P1;SDS_P2;PMS_P1;PMS_P2;Temp;Humidity;BMP_temperature;BMP_pressure;BME280_temperature;BME280_humidity;BME280_pressure;Samples;Min_cycle;Max_cycle;Signal;HPM_P1;HPM_P2
2021/11/07 00:00:18;;;;;;;7.10;6.50;;;10.10;95.80;;;;;;6229592;28;20465;-67
2021/11/07 00:03:27;;;;;;;7.63;6.83;;;10.10;95.70;;;;;;6251354;28;20904;-67
2021/11/07 00:06:34;;;;;;;7.20;6.60;;;10.10;95.60;;;;;;6251355;28;20475;-68
2021/11/07 00:09:42;;;;;;;8.70;7.73;;;10.10;95.50;;;;;;6251742;28;20478;-65
2021/11/07 00:12:48;;;;;;;8.33;7.50;;;10.10;95.60;;;;;;6251813;28;20525;-67
2021/11/07 00:15:52;;;;;;;8.07;7.00;;;10.10;95.60;;;;;;6251266;28;20467;-67
2021/11/07 00:19:10;;;;;;;8.27;7.47;;;10.10;95.50;;;;;;6251762;28;20471;-67
2021/11/07 00:22:16;;;;;;;7.50;6.80;;;10.20;95.60;;;;;;6254396;28;22519;-65
2021/11/07 00:25:25;;;;;;;8.20;6.50;;;10.10;95.50;;;;;;6275849;28;21009;-67
2021/11/07 00:28:34;;;;;;;7.93;7.23;;;10.10;95.60;;;;;;6275486;28;20997;-66
2021/11/07 00:31:46;;;;;;;6.73;6.10;;;10.10;95.80;;;;;;6275783;28;20497;-66
2021/11/07 00:38:20;;;;;;;9.70;7.90;;;10.10;96.00;;;;;;6275517;28;20493;-65
2021/11/07 00:41:31;;;;;;;12.80;9.87;;;10.10;96.00;;;;;;6275375;28;20985;-64
2021/11/07 00:44:39;;;;;;;9.90;8.90;;;10.10;96.10;;;;;;6275539;28;20469;-64
2021/11/07 00:47:45;;;;;;;9.53;8.53;;;10.20;96.10;;;;;;6275424;28;20481;-64
2021/11/07 00:51:00;;;;;;;10.93;8.77;;;10.10;96.00;;;;;;6250630;28;20482;-64
2021/11/07 00:54:12;;;;;;;8.90;8.00;;;10.20;96.00;;;;;;6250273;28;20475;-65
2021/11/07 00:57:20;;;;;;;10.27;8.17;;;10.20;96.00;;;;;;6231933;28;20814;-66
2021/11/07 01:00:36;;;;;;;7.90;7.10;;;10.20;96.00;;;;;;6230341;28;20962;-65
2021/11/07 01:03:39;;;;;;;7.40;6.63;;;10.20;95.90;;;;;;6250451;28;20471;-65
2021/11/07 01:06:44;;;;;;;9.37;7.13;;;10.20;95.70;;;;;;6250360;28;20479;-66
2021/11/07 01:09:47;;;;;;;7.10;6.40;;;10.10;95.50;;;;;;6249839;28;20467;-66
2021/11/07 01:12:50;;;;;;;9.77;7.57;;;10.10;95.60;;;;;;6250172;28;20826;-66
2021/11/07 01:15:54;;;;;;;10.00;7.60;;;10.00;95.80;;;;;;6248913;28;20482;-66
2021/11/07 01:18:57;;;;;;;11.70;7.40;;;10.00;96.20;;;;;;6249871;28;20471;-66
2021/11/07 01:22:04;;;;;;;10.47;8.57;;;9.90;97.00;;;;;;6250774;28;20487;-67
2021/11/07 01:25:08;;;;;;;13.30;10.23;;;9.90;97.20;;;;;;6274306;28;20470;-66
2021/11/07 01:28:12;;;;;;;13.07;10.67;;;9.90;97.40;;;;;;6274487;28;20473;-66
2021/11/07 01:31:15;;;;;;;11.93;10.63;;;9.90;97.50;;;;;;6273801;28;21170;-64
2021/11/07 01:34:24;;;;;;;12.47;11.00;;;9.90;98.10;;;;;;6274384;28;20493;-66
2021/11/07 01:37:33;;;;;;;12.83;10.67;;;9.90;97.80;;;;;;6274208;28;20474;-67
2021/11/07 01:40:40;;;;;;;13.40;10.80;;;9.80;98.20;;;;;;6274201;28;20822;-67
2021/11/07 01:43:45;;;;;;;11.87;9.63;;;9.90;98.00;;;;;;6273826;28;20474;-65
2021/11/07 01:46:52;;;;;;;10.87;9.80;;;9.80;97.90;;;;;;6254087;28;20473;-66
2021/11/07 01:49:55;;;;;;;10.67;9.57;;;9.80;98.00;;;;;;6232106;28;20468;-66
2021/11/07 01:53:06;;;;;;;11.77;10.23;;;9.80;97.90;;;;;;6224660;28;20491;-67
2021/11/07 01:56:12;;;;;;;11.30;10.30;;;9.80;98.00;;;;;;6233150;28;20483;-67
2021/11/07 01:59:15;;;;;;;12.40;10.00;;;9.80;98.20;;;;;;6248615;28;20529;-67
2021/11/07 02:02:19;;;;;;;13.13;11.40;;;9.80;98.20;;;;;;6228764;28;20487;-66
2021/11/07 02:05:23;;;;;;;12.73;11.40;;;9.80;98.40;;;;;;6224472;28;20476;-67
2021/11/07 02:08:28;;;;;;;10.77;9.67;;;9.70;98.50;;;;;;6231466;28;20479;-66
2021/11/07 02:11:31;;;;;;;11.53;10.23;;;9.70;98.70;;;;;;6249188;28;20475;-65
2021/11/07 02:14:34;;;;;;;12.70;9.97;;;9.70;99.00;;;;;;6248772;28;20565;-65
2021/11/07 02:17:37;;;;;;;13.20;11.07;;;9.70;99.20;;;;;;6248607;28;20490;-65
2021/11/07 02:20:42;;;;;;;11.13;9.50;;;9.70;99.20;;;;;;6248745;28;20485;-65
2021/11/07 02:23:45;;;;;;;10.47;9.20;;;9.70;99.30;;;;;;6248450;28;20475;-66
2021/11/07 02:26:52;;;;;;;9.87;8.87;;;9.70;99.30;;;;;;6247891;28;20471;-66
2021/11/07 02:29:56;;;;;;;12.90;10.23;;;9.60;99.30;;;;;;6248076;28;20773;-65
2021/11/07 02:32:59;;;;;;;14.93;11.60;;;9.50;99.30;;;;;;6247109;28;20486;-65
2021/11/07 02:36:09;;;;;;;13.93;10.87;;;9.50;99.40;;;;;;6244843;28;20478;-65
2021/11/07 02:39:13;;;;;;;13.27;11.57;;;9.50;99.40;;;;;;6247487;28;20471;-66
2021/11/07 02:42:16;;;;;;;13.13;11.20;;;9.50;99.10;;;;;;6248416;28;20467;-66
2021/11/07 02:45:21;;;;;;;15.90;11.93;;;9.50;98.80;;;;;;6248631;28;20479;-65
2021/11/07 02:48:24;;;;;;;19.33;11.37;;;9.50;98.70;;;;;;6246598;28;20470;-65
2021/11/07 02:51:32;;;;;;;12.50;10.47;;;9.50;98.60;;;;;;6248498;28;20482;-66
2021/11/07 02:54:35;;;;;;;12.50;10.57;;;9.50;98.70;;;;;;6249238;28;20471;-66
2021/11/07 02:57:38;;;;;;;13.30;11.40;;;9.50;98.80;;;;;;6248694;28;20475;-66
2021/11/07 03:00:42;;;;;;;12.37;11.10;;;9.50;98.70;;;;;;6250237;28;20483;-65
2021/11/07 03:03:46;;;;;;;13.47;11.53;;;9.50;98.50;;;;;;6250136;28;20477;-65
2021/11/07 03:06:51;;;;;;;22.37;12.10;;;9.50;98.50;;;;;;6249456;28;20533;-66
2021/11/07 03:09:54;;;;;;;14.63;11.80;;;9.50;98.50;;;;;;6249111;28;20547;-65
2021/11/07 03:13:07;;;;;;;15.10;12.10;;;9.50;98.60;;;;;;6249332;28;20485;-65
2021/11/07 03:16:12;;;;;;;12.20;10.90;;;9.50;98.60;;;;;;6248992;28;20959;-65
2021/11/07 03:19:16;;;;;;;13.20;11.67;;;9.50;98.50;;;;;;6249666;28;20471;-66
2021/11/07 03:22:23;;;;;;;13.30;11.30;;;9.50;98.60;;;;;;6249342;28;20481;-65
2021/11/07 03:25:26;;;;;;;11.83;10.60;;;9.50;98.60;;;;;;6247989;28;20471;-66
2021/11/07 03:28:31;;;;;;;15.10;11.20;;;9.40;98.60;;;;;;6247965;28;20489;-65
2021/11/07 03:31:42;;;;;;;12.63;9.97;;;9.50;98.80;;;;;;6247342;28;20548;-66
2021/11/07 03:34:48;;;;;;;16.57;12.23;;;9.50;99.00;;;;;;6247912;28;20475;-66
2021/11/07 03:37:58;;;;;;;11.30;10.17;;;9.40;99.10;;;;;;6247357;28;20822;-65
2021/11/07 03:41:02;;;;;;;12.30;10.63;;;9.50;99.30;;;;;;6253486;28;20482;-65
2021/11/07 03:44:06;;;;;;;10.83;9.73;;;9.50;99.30;;;;;;6253152;28;20482;-65
2021/11/07 03:47:10;;;;;;;13.03;9.40;;;9.60;99.40;;;;;;6252244;28;20804;-65
2021/11/07 03:50:14;;;;;;;12.77;10.93;;;9.60;99.50;;;;;;6251885;28;20474;-65
2021/11/07 03:53:18;;;;;;;9.83;8.83;;;9.60;99.50;;;;;;6252110;28;20486;-66
2021/11/07 03:56:21;;;;;;;10.37;9.07;;;9.60;99.60;;;;;;6247533;28;20487;-66
2021/11/07 03:59:24;;;;;;;10.80;9.47;;;9.60;99.60;;;;;;6252487;28;20474;-66
2021/11/07 04:02:27;;;;;;;11.23;9.70;;;9.60;99.70;;;;;;6251739;28;20483;-65
2021/11/07 04:05:31;;;;;;;16.10;11.10;;;9.60;99.70;;;;;;6251706;28;20494;-65
2021/11/07 04:08:35;;;;;;;11.90;9.63;;;9.60;99.90;;;;;;6251564;28;20969;-65
2021/11/07 04:11:40;;;;;;;12.30;9.47;;;9.60;99.90;;;;;;6251556;28;20475;-65
2021/11/07 04:14:43;;;;;;;8.70;7.90;;;9.50;99.90;;;;;;6252019;28;20483;-65
2021/11/07 04:17:47;;;;;;;10.23;9.23;;;9.50;99.90;;;;;;6252931;28;20486;-65
2021/11/07 04:20:50;;;;;;;10.80;8.70;;;9.50;99.90;;;;;;6252730;28;20844;-65
2021/11/07 04:23:56;;;;;;;10.13;9.13;;;9.40;99.90;;;;;;6253034;28;20768;-65
2021/11/07 04:26:59;;;;;;;11.60;8.83;;;9.40;99.90;;;;;;6252685;28;20470;-64
2021/11/07 04:30:03;;;;;;;11.40;8.97;;;9.40;99.90;;;;;;6252788;28;20439;-65
2021/11/07 04:33:06;;;;;;;10.23;8.77;;;9.30;99.90;;;;;;6252920;28;20489;-65
2021/11/07 04:36:10;;;;;;;10.10;9.10;;;9.30;99.90;;;;;;6252259;28;20467;-65
2021/11/07 04:39:14;;;;;;;9.37;7.77;;;9.30;99.90;;;;;;6252160;28;20930;-65
2021/11/07 04:42:18;;;;;;;11.57;8.60;;;9.20;99.90;;;;;;6252208;28;20461;-65
2021/11/07 04:45:22;;;;;;;12.00;8.53;;;9.20;99.90;;;;;;6252722;28;20476;-65
2021/11/07 04:48:26;;;;;;;9.57;8.67;;;9.10;99.90;;;;;;6252488;28;20463;-65
2021/11/07 04:51:29;;;;;;;10.47;8.50;;;9.10;99.90;;;;;;6251517;28;20475;-65
2021/11/07 04:54:35;;;;;;;9.83;8.83;;;9.00;99.90;;;;;;6250839;28;20482;-65
2021/11/07 04:57:42;;;;;;;7.30;6.70;;;9.00;99.90;;;;;;6250725;28;20471;-65
2021/11/07 05:00:46;;;;;;;7.83;7.03;;;9.00;99.90;;;;;;6251063;28;20887;-65
2021/11/07 05:03:49;;;;;;;9.50;8.50;;;9.00;99.90;;;;;;6250890;28;20474;-65
2021/11/07 05:06:53;;;;;;;7.97;7.23;;;8.90;99.90;;;;;;6251653;28;20467;-65
2021/11/07 05:09:57;;;;;;;9.07;7.50;;;8.90;99.90;;;;;;6251656;28;20471;-65
2021/11/07 05:13:00;;;;;;;9.87;7.60;;;8.90;99.90;;;;;;6251619;28;20954;-65
2021/11/07 05:16:04;;;;;;;7.77;6.90;;;8.90;99.90;;;;;;6251111;28;20507;-65
2021/11/07 05:19:07;;;;;;;8.53;7.50;;;8.90;99.90;;;;;;6250761;28;20878;-65
2021/11/07 05:22:10;;;;;;;9.80;7.57;;;8.90;99.90;;;;;;6251447;28;20467;-65
2021/11/07 05:25:15;;;;;;;6.77;6.17;;;8.90;99.90;;;;;;6251195;28;20818;-65
2021/11/07 05:28:18;;;;;;;12.60;8.17;;;8.80;99.90;;;;;;6251498;28;20459;-65
2021/11/07 05:31:22;;;;;;;10.30;8.10;;;8.80;99.90;;;;;;6250983;28;20493;-65
2021/11/07 05:34:25;;;;;;;9.73;6.67;;;8.80;99.90;;;;;;6251282;28;20475;-65
2021/11/07 05:37:29;;;;;;;8.20;7.40;;;8.80;99.90;;;;;;6251018;28;20791;-65
2021/11/07 05:40:34;;;;;;;8.53;7.73;;;8.80;99.90;;;;;;6251129;28;20554;-65
2021/11/07 05:43:38;;;;;;;8.60;7.70;;;8.80;99.90;;;;;;6251149;28;20973;-65
2021/11/07 05:46:41;;;;;;;8.77;7.20;;;8.70;99.90;;;;;;6250935;28;20471;-65
2021/11/07 05:49:44;;;;;;;7.40;6.70;;;8.70;99.90;;;;;;6251112;28;20485;-65
2021/11/07 05:52:48;;;;;;;7.70;6.93;;;8.70;99.90;;;;;;6250769;28;20470;-65
2021/11/07 05:55:53;;;;;;;7.73;7.00;;;8.70;99.90;;;;;;6250582;28;20506;-65
2021/11/07 05:58:57;;;;;;;7.03;5.73;;;8.70;99.90;;;;;;6250753;28;20483;-65
2021/11/07 06:02:00;;;;;;;7.60;6.53;;;8.70;99.90;;;;;;6249891;28;20487;-65
2021/11/07 06:05:04;;;;;;;6.50;5.90;;;8.70;99.90;;;;;;6241049;28;20471;-65
2021/11/07 06:08:07;;;;;;;9.03;6.73;;;8.70;99.90;;;;;;6250005;28;20466;-65
2021/11/07 06:11:12;;;;;;;7.10;6.50;;;8.70;99.90;;;;;;6250581;28;20467;-65
2021/11/07 06:14:15;;;;;;;7.40;6.53;;;8.70;99.90;;;;;;6250470;28;20473;-65
2021/11/07 06:17:18;;;;;;;6.30;5.80;;;8.70;99.90;;;;;;6250526;28;20953;-65
2021/11/07 06:20:21;;;;;;;8.90;6.37;;;8.80;99.90;;;;;;6250837;28;20471;-65
2021/11/07 06:23:25;;;;;;;7.53;6.47;;;8.70;99.90;;;;;;6249858;28;20842;-65
2021/11/07 06:26:29;;;;;;;7.23;6.63;;;8.70;99.90;;;;;;6250110;28;20485;-65
2021/11/07 06:29:33;;;;;;;8.93;7.50;;;8.70;99.90;;;;;;6249628;28;20475;-65
2021/11/07 06:32:36;;;;;;;7.30;6.57;;;8.70;99.90;;;;;;6249968;28;20489;-65
2021/11/07 06:35:39;;;;;;;9.27;7.00;;;8.70;99.90;;;;;;6250654;28;20477;-66
2021/11/07 06:38:43;;;;;;;9.23;6.93;;;8.70;99.90;;;;;;6249810;28;20486;-65
2021/11/07 06:41:47;;;;;;;7.77;6.37;;;8.70;99.90;;;;;;6250683;28;20532;-65
2021/11/07 06:44:51;;;;;;;7.33;6.30;;;8.70;99.90;;;;;;6250208;28;20490;-65
2021/11/07 06:47:54;;;;;;;7.87;6.90;;;8.70;99.90;;;;;;6249231;28;20470;-65
2021/11/07 06:50:58;;;;;;;8.60;6.77;;;8.70;99.90;;;;;;6249656;28;20794;-65
2021/11/07 06:54:01;;;;;;;9.37;6.40;;;8.70;99.90;;;;;;6252674;28;20443;-65
2021/11/07 06:57:06;;;;;;;7.47;6.53;;;8.80;99.90;;;;;;6249441;28;20965;-65
2021/11/07 07:00:13;;;;;;;6.70;6.10;;;8.80;99.90;;;;;;6249904;28;20470;-65
2021/11/07 07:03:16;;;;;;;6.90;6.27;;;8.90;99.90;;;;;;6249488;28;20482;-65
2021/11/07 07:06:19;;;;;;;7.00;5.23;;;9.10;99.90;;;;;;6240315;28;20467;-65
2021/11/07 07:09:25;;;;;;;5.80;5.17;;;9.20;99.90;;;;;;6249354;28;20490;-65
2021/11/07 07:12:32;;;;;;;7.20;5.43;;;9.40;99.80;;;;;;6249621;28;20478;-65
2021/11/07 07:15:38;;;;;;;6.60;6.00;;;9.60;99.70;;;;;;6252948;28;20990;-66
2021/11/07 07:18:53;;;;;;;5.80;5.30;;;9.70;99.20;;;;;;6254585;28;20470;-65
2021/11/07 07:22:09;;;;;;;5.13;4.63;;;9.90;98.60;;;;;;6253423;28;20481;-65
2021/11/07 07:35:30;;;;;;;4.30;3.90;;;10.00;95.80;;;;;;6242596;28;20482;-65
2021/11/07 07:38:33;;;;;;;8.67;4.53;;;10.00;95.50;;;;;;6253291;28;20510;-65
2021/11/07 07:41:36;;;;;;;4.30;3.93;;;10.10;95.50;;;;;;6253579;28;20479;-65
2021/11/07 07:44:41;;;;;;;4.17;3.77;;;10.20;95.10;;;;;;6253031;28;20474;-65
2021/11/07 07:47:44;;;;;;;4.77;4.33;;;10.30;94.60;;;;;;6252843;28;20475;-65
2021/11/07 07:50:48;;;;;;;7.47;3.87;;;10.40;94.40;;;;;;6253051;28;20466;-65
2021/11/07 07:53:51;;;;;;;4.37;3.80;;;10.70;94.10;;;;;;6253235;28;20474;-65
2021/11/07 07:56:55;;;;;;;4.00;3.70;;;10.80;93.50;;;;;;6252975;28;20757;-65
2021/11/07 07:59:59;;;;;;;5.00;4.47;;;11.00;93.20;;;;;;6252961;28;20478;-65
2021/11/07 08:03:03;;;;;;;4.73;3.50;;;11.10;92.70;;;;;;6253104;28;20443;-66
2021/11/07 08:06:07;;;;;;;4.53;3.63;;;11.30;92.20;;;;;;6253263;28;20474;-65
2021/11/07 08:09:10;;;;;;;6.00;4.40;;;11.40;91.60;;;;;;6249159;28;20451;-65
2021/11/07 08:12:13;;;;;;;6.27;4.13;;;11.50;91.40;;;;;;6253092;28;20471;-68
2021/11/07 08:15:18;;;;;;;5.07;4.20;;;11.60;91.20;;;;;;6253304;28;20481;-68
2021/11/07 08:18:21;;;;;;;5.37;3.67;;;11.70;90.30;;;;;;6252855;28;20474;-68
2021/11/07 08:21:25;;;;;;;5.17;3.70;;;11.70;90.10;;;;;;6253187;28;20462;-68
2021/11/07 08:24:29;;;;;;;6.37;3.50;;;11.80;90.40;;;;;;6253025;28;20478;-68
2021/11/07 08:27:34;;;;;;;5.60;4.20;;;11.70;89.20;;;;;;6253052;28;20799;-68
2021/11/07 08:30:41;;;;;;;4.93;3.60;;;11.70;89.40;;;;;;6252596;28;20479;-68
2021/11/07 08:33:45;;;;;;;7.80;3.17;;;11.60;89.60;;;;;;6252739;28;20467;-68
2021/11/07 08:36:54;;;;;;;4.73;3.63;;;11.70;89.30;;;;;;6252408;28;20478;-68
2021/11/07 08:39:59;;;;;;;4.83;4.00;;;11.80;89.00;;;;;;6252944;28;20490;-67
2021/11/07 08:43:08;;;;;;;4.40;3.80;;;11.80;89.00;;;;;;6251940;28;20471;-69
2021/11/07 09:03:10;;;;;;;4.17;3.77;;;12.00;86.10;;;;;;6251547;28;20479;-67
2021/11/07 09:06:24;;;;;;;3.50;3.20;;;12.20;85.50;;;;;;6252249;28;20485;-68
2021/11/07 09:09:33;;;;;;;4.47;3.27;;;12.30;85.10;;;;;;6252723;28;20490;-68
2021/11/07 09:12:38;;;;;;;4.67;3.50;;;12.40;84.60;;;;;;6251852;28;20998;-68
2021/11/07 09:15:42;;;;;;;5.33;3.50;;;12.50;83.70;;;;;;6251384;28;20471;-68
2021/11/07 09:18:47;;;;;;;5.00;4.20;;;12.70;83.80;;;;;;6251189;28;21001;-68
2021/11/07 09:21:55;;;;;;;4.77;3.87;;;12.90;82.50;;;;;;6251675;28;20487;-68
2021/11/07 09:25:01;;;;;;;5.10;3.90;;;13.90;80.30;;;;;;6251386;28;20474;-69
2021/11/07 09:28:07;;;;;;;4.97;3.67;;;16.60;73.30;;;;;;6251455;28;20961;-68
2021/11/07 09:31:14;;;;;;;5.40;3.90;;;19.90;59.20;;;;;;6251168;28;20506;-68
2021/11/07 09:34:25;;;;;;;7.93;4.93;;;23.30;50.00;;;;;;6250877;28;20232;-68
2021/11/07 09:37:38;;;;;;;4.93;4.37;;;24.20;42.80;;;;;;6250101;28;20255;-69
2021/11/07 09:40:46;;;;;;;5.40;4.90;;;25.20;41.50;;;;;;6251184;28;20220;-68
2021/11/07 09:43:53;;;;;;;6.13;5.50;;;25.00;39.80;;;;;;6248209;28;20543;-67
2021/11/07 09:46:59;;;;;;;6.87;5.67;;;25.40;38.20;;;;;;6250607;28;20224;-68
2021/11/07 09:50:05;;;;;;;7.73;7.00;;;25.80;37.60;;;;;;6250483;28;20220;-69
2021/11/07 09:53:09;;;;;;;7.07;6.57;;;27.50;36.10;;;;;;6247901;28;20258;-68
2021/11/07 09:56:12;;;;;;;7.70;6.97;;;29.10;33.50;;;;;;6250295;28;20231;-70
2021/11/07 09:59:16;;;;;;;8.57;7.77;;;30.00;31.10;;;;;;6250077;28;20231;-69
2021/11/07 10:02:21;;;;;;;9.60;7.85;;;31.10;29.50;;;;;;6250287;28;20269;-69
2021/11/07 10:05:26;;;;;;;8.18;7.57;;;32.60;27.90;;;;;;6252338;28;20278;-71
2021/11/07 10:08:42;;;;;;;8.40;7.75;;;33.50;26.80;;;;;;6244979;28;20551;-69
2021/11/07 10:12:04;;;;;;;8.13;7.13;;;34.30;25.60;;;;;;6248911;28;20234;-69
2021/11/07 10:15:11;;;;;;;8.35;7.65;;;35.50;24.50;;;;;;6273062;28;20596;-71
2021/11/07 10:18:25;;;;;;;8.52;7.82;;;36.50;23.60;;;;;;6226893;28;20235;-69
2021/11/07 10:21:35;;;;;;;8.15;7.45;;;37.10;22.70;;;;;;6225998;28;20241;-70
2021/11/07 10:24:39;;;;;;;8.25;7.55;;;37.80;22.00;;;;;;6225863;28;20236;-70
2021/11/07 10:27:47;;;;;;;8.52;7.82;;;38.60;21.40;;;;;;6226875;28;20241;-68
2021/11/07 10:31:10;;;;;;;7.38;6.78;;;39.20;20.70;;;;;;6249272;28;20236;-70
2021/11/07 10:34:31;;;;;;;7.53;7.00;;;38.70;20.40;;;;;;6247778;28;20543;-69
2021/11/07 10:37:58;;;;;;;7.85;7.10;;;38.90;20.30;;;;;;6249591;28;20235;-71
2021/11/07 10:41:31;;;;;;;7.30;6.70;;;38.80;20.20;;;;;;6225133;28;20237;-69
2021/11/07 10:44:51;;;;;;;7.45;6.57;;;39.70;19.70;;;;;;6227052;28;20618;-67
2021/11/07 10:55:01;;;;;;;6.60;6.00;;;40.60;18.30;;;;;;6230968;28;20221;-68
2021/11/07 10:58:05;;;;;;;5.93;5.50;;;41.10;17.90;;;;;;6255095;28;20248;-69
2021/11/07 11:01:10;;;;;;;6.10;5.47;;;41.00;17.80;;;;;;6255253;28;20253;-67
2021/11/07 11:04:13;;;;;;;6.10;5.60;;;41.10;17.60;;;;;;6254121;28;20240;-66
2021/11/07 11:07:16;;;;;;;6.10;5.60;;;41.60;17.50;;;;;;6254186;28;20243;-67
2021/11/07 11:10:25;;;;;;;5.40;4.93;;;40.20;17.50;;;;;;6230449;28;20259;-67
2021/11/07 11:13:37;;;;;;;6.47;5.32;;;40.10;18.00;;;;;;6230027;28;20701;-66
2021/11/07 11:16:50;;;;;;;4.38;3.97;;;40.80;17.80;;;;;;6229903;28;20242;-67
2021/11/07 11:20:07;;;;;;;3.83;3.47;;;41.10;17.30;;;;;;6229465;28;20576;-67
2021/11/07 11:23:17;;;;;;;4.75;4.40;;;40.50;17.20;;;;;;6220383;28;20703;-66
2021/11/07 11:26:38;;;;;;;7.07;5.47;;;40.40;17.60;;;;;;6229321;28;20260;-67
2021/11/07 11:29:50;;;;;;;4.90;4.50;;;38.60;18.70;;;;;;6229395;28;20704;-69
2021/11/07 11:32:57;;;;;;;4.97;4.57;;;37.40;19.10;;;;;;6233149;28;20238;-66
2021/11/07 11:36:10;;;;;;;5.95;5.45;;;36.30;20.20;;;;;;6253776;28;20238;-66
2021/11/07 11:39:19;;;;;;;6.40;5.90;;;35.20;20.50;;;;;;6254006;28;20191;-66
2021/11/07 11:42:28;;;;;;;5.70;5.20;;;33.50;21.90;;;;;;6253861;28;20672;-66
2021/11/07 11:45:37;;;;;;;5.65;4.93;;;32.80;22.30;;;;;;6253917;28;20242;-69
2021/11/07 11:55:50;;;;;;;5.45;4.68;;;36.00;20.90;;;;;;6241074;28;20224;-65
2021/11/07 11:58:59;;;;;;;4.60;4.20;;;37.30;19.90;;;;;;6252602;28;20566;-66
2021/11/07 12:02:13;;;;;;;4.22;3.92;;;36.30;19.50;;;;;;6252946;28;20652;-68
2021/11/07 12:05:25;;;;;;;4.28;3.88;;;35.50;20.70;;;;;;6253213;28;20844;-68
2021/11/07 12:08:44;;;;;;;5.03;4.60;;;35.90;19.80;;;;;;6246416;28;20228;-67
2021/11/07 12:11:53;;;;;;;4.60;4.15;;;35.20;20.50;;;;;;6228663;28;20570;-66
2021/11/07 12:15:04;;;;;;;5.13;4.63;;;35.40;20.80;;;;;;6236022;28;20515;-68
2021/11/07 12:18:09;;;;;;;5.10;3.88;;;35.60;20.60;;;;;;6232106;28;20608;-66
2021/11/07 12:21:12;;;;;;;4.10;3.80;;;36.90;19.90;;;;;;6245058;28;20288;-69
2021/11/07 12:24:19;;;;;;;4.90;4.22;;;36.60;20.10;;;;;;6223347;28;20262;-66
2021/11/07 12:27:28;;;;;;;3.95;3.58;;;36.80;19.90;;;;;;6232931;28;20232;-66
2021/11/07 12:30:33;;;;;;;4.35;3.95;;;35.50;20.20;;;;;;6235630;28;20239;-67
2021/11/07 12:33:54;;;;;;;4.72;4.32;;;35.00;20.90;;;;;;6237476;28;20231;-68
2021/11/07 12:40:42;;;;;;;4.32;3.92;;;35.30;20.50;;;;;;6248959;28;20235;-68
2021/11/07 12:43:47;;;;;;;5.03;4.60;;;35.40;20.90;;;;;;6234549;28;20699;-68
2021/11/07 12:46:57;;;;;;;3.78;3.47;;;35.90;20.60;;;;;;6250013;28;20236;-67
2021/11/07 12:50:05;;;;;;;4.50;4.10;;;34.80;20.80;;;;;;6249736;28;20227;-68
2021/11/07 12:53:08;;;;;;;5.45;4.40;;;35.00;20.90;;;;;;6250124;28;20231;-66
2021/11/07 12:56:30;;;;;;;4.80;4.40;;;35.10;21.20;;;;;;6250337;28;20625;-66
2021/11/07 12:59:37;;;;;;;4.45;4.15;;;35.10;21.00;;;;;;6250124;28;20706;-67
2021/11/07 13:02:42;;;;;;;4.03;3.40;;;35.10;21.10;;;;;;6250989;28;20235;-67
2021/11/07 13:05:56;;;;;;;4.57;4.18;;;35.90;20.40;;;;;;6250923;28;20234;-67
2021/11/07 13:09:02;;;;;;;4.15;3.85;;;36.00;20.40;;;;;;6251015;28;20220;-67
2021/11/07 13:12:13;;;;;;;4.80;4.47;;;36.20;20.30;;;;;;6250900;28;20203;-67
2021/11/07 13:18:55;;;;;;;3.78;3.35;;;35.10;20.70;;;;;;6226885;28;20229;-67
2021/11/07 13:22:26;;;;;;;4.88;3.85;;;35.30;20.80;;;;;;6227304;28;20252;-66
2021/11/07 13:25:46;;;;;;;4.72;4.28;;;35.80;20.60;;;;;;6226571;28;20244;-67
2021/11/07 13:29:08;;;;;;;4.40;3.90;;;34.80;21.10;;;;;;6226970;28;20229;-66
2021/11/07 13:35:43;;;;;;;3.95;3.65;;;35.00;21.30;;;;;;6213910;28;20314;-66
2021/11/07 13:38:48;;;;;;;4.05;3.75;;;34.30;21.30;;;;;;6225272;28;20234;-64
2021/11/07 13:41:53;;;;;;;4.35;3.95;;;34.10;21.70;;;;;;6224772;28;20239;-65
2021/11/07 13:45:00;;;;;;;5.00;4.28;;;33.00;22.30;;;;;;6224331;28;20228;-65
2021/11/07 13:48:13;;;;;;;6.03;4.50;;;32.10;23.10;;;;;;6224967;28;20200;-65
2021/11/07 13:51:18;;;;;;;4.50;4.10;;;30.50;24.30;;;;;;6224894;28;20246;-65
2021/11/07 13:54:22;;;;;;;5.83;4.40;;;28.50;26.30;;;;;;6225181;28;20680;-65
2021/11/07 13:57:27;;;;;;;7.23;4.47;;;26.60;28.10;;;;;;6224752;28;20252;-64
2021/11/07 14:00:30;;;;;;;5.70;4.80;;;25.00;29.90;;;;;;6224904;28;20229;-64
2021/11/07 14:03:34;;;;;;;5.47;4.67;;;23.10;32.30;;;;;;6224508;28;20312;-64
2021/11/07 14:06:40;;;;;;;3.80;3.30;;;21.70;34.60;;;;;;6224661;28;20232;-64
2021/11/07 14:10:05;;;;;;;5.73;3.93;;;20.80;36.20;;;;;;6237062;28;20247;-64
2021/11/07 14:13:09;;;;;;;4.40;3.70;;;19.40;38.20;;;;;;6250133;28;20243;-64
2021/11/07 14:16:15;;;;;;;3.93;3.43;;;18.50;40.40;;;;;;6241049;28;20236;-64
2021/11/07 14:19:18;;;;;;;6.33;3.83;;;18.10;41.70;;;;;;6225418;28;20236;-64
2021/11/07 14:22:23;;;;;;;5.27;3.70;;;17.80;42.40;;;;;;6225120;28;20295;-64
2021/11/07 14:25:26;;;;;;;4.03;3.67;;;17.60;43.10;;;;;;6225453;28;20995;-64
2021/11/07 14:28:35;;;;;;;5.13;3.20;;;17.40;43.70;;;;;;6225528;28;20487;-64
2021/11/07 14:31:49;;;;;;;3.87;3.53;;;17.20;44.30;;;;;;6225478;28;20542;-64
2021/11/07 14:35:01;;;;;;;5.50;4.40;;;17.00;45.00;;;;;;6225391;28;20818;-64
2021/11/07 14:38:10;;;;;;;4.10;3.80;;;16.70;45.90;;;;;;6225479;28;20475;-64
2021/11/07 14:41:18;;;;;;;7.33;4.33;;;16.50;46.70;;;;;;6225215;28;20479;-64
2021/11/07 14:44:35;;;;;;;4.57;3.73;;;16.30;47.40;;;;;;6225436;28;20483;-64
2021/11/07 14:47:48;;;;;;;5.97;5.03;;;15.90;48.50;;;;;;6224788;28;20487;-64
2021/11/07 14:51:02;;;;;;;4.37;3.87;;;15.60;49.40;;;;;;6225340;28;20480;-63
2021/11/07 14:54:16;;;;;;;6.23;4.30;;;15.30;50.60;;;;;;6225432;28;20447;-64
2021/11/07 14:57:41;;;;;;;5.13;4.63;;;15.10;51.10;;;;;;6225224;28;20475;-64
2021/11/07 15:00:52;;;;;;;5.07;4.37;;;14.90;52.00;;;;;;6224957;28;20480;-64
2021/11/07 15:04:08;;;;;;;4.97;4.27;;;14.90;52.80;;;;;;6224980;28;20491;-64
2021/11/07 15:07:13;;;;;;;5.63;4.80;;;14.80;53.20;;;;;;6225088;28;20480;-64
2021/11/07 15:10:28;;;;;;;8.40;4.70;;;14.60;53.60;;;;;;6241473;28;20482;-64
2021/11/07 15:13:44;;;;;;;5.17;4.67;;;14.40;54.50;;;;;;6249271;28;20494;-64
2021/11/07 15:16:50;;;;;;;5.00;4.50;;;14.30;55.10;;;;;;6234772;28;20476;-64
2021/11/07 15:20:18;;;;;;;4.30;3.87;;;14.10;55.60;;;;;;6224805;28;20468;-64
2021/11/07 15:23:32;;;;;;;5.30;4.27;;;14.00;56.30;;;;;;6224710;28;20487;-63
2021/11/07 15:26:43;;;;;;;4.70;4.30;;;13.90;56.90;;;;;;6225221;28;20811;-64
2021/11/07 15:29:56;;;;;;;5.00;4.43;;;13.80;57.50;;;;;;6224642;28;20475;-64
2021/11/07 15:33:08;;;;;;;6.30;4.30;;;13.60;58.30;;;;;;6223985;28;20491;-63
2021/11/07 15:36:11;;;;;;;5.37;4.17;;;13.40;59.30;;;;;;6227939;28;20789;-64
2021/11/07 15:39:18;;;;;;;5.17;4.77;;;13.30;60.00;;;;;;6229605;28;20449;-64
2021/11/07 15:42:28;;;;;;;5.23;4.73;;;13.30;60.60;;;;;;6229262;28;20460;-64
2021/11/07 15:45:35;;;;;;;5.90;4.70;;;13.30;62.00;;;;;;6228701;28;20985;-65
2021/11/07 15:48:41;;;;;;;5.47;4.93;;;13.20;62.40;;;;;;6229391;28;20471;-64
2021/11/07 15:51:50;;;;;;;5.47;4.90;;;13.20;62.80;;;;;;6228662;28;20471;-64
2021/11/07 15:54:58;;;;;;;5.07;4.57;;;13.10;63.50;;;;;;6229146;28;20995;-65
2021/11/07 16:01:31;;;;;;;6.73;5.03;;;13.00;64.80;;;;;;6179571;28;20990;-66
2021/11/07 16:04:57;;;;;;;5.07;4.57;;;12.90;65.50;;;;;;6179901;28;20478;-64
2021/11/07 16:08:17;;;;;;;6.37;5.33;;;12.80;66.70;;;;;;6153153;28;20482;-64
2021/11/07 16:11:28;;;;;;;9.60;5.87;;;12.80;67.10;;;;;;6155067;28;20481;-65
2021/11/07 16:14:52;;;;;;;5.57;5.00;;;12.80;68.00;;;;;;6155305;29;20475;-65
2021/11/07 16:17:56;;;;;;;6.37;5.80;;;12.70;68.70;;;;;;6154986;28;20463;-64
2021/11/07 16:20:59;;;;;;;7.30;6.30;;;12.60;69.70;;;;;;6203273;28;20772;-64
2021/11/07 16:24:04;;;;;;;6.93;6.20;;;12.60;71.10;;;;;;6190198;28;20472;-64
2021/11/07 16:27:10;;;;;;;7.77;5.87;;;12.60;71.30;;;;;;6192858;28;20460;-64
2021/11/07 16:30:18;;;;;;;8.20;6.20;;;12.60;71.90;;;;;;6191057;28;20445;-64
2021/11/07 16:33:23;;;;;;;10.80;9.70;;;12.60;72.70;;;;;;6203488;28;20472;-64
2021/11/07 16:36:30;;;;;;;18.10;13.30;;;12.60;73.00;;;;;;6200841;28;20492;-63
2021/11/07 16:39:36;;;;;;;16.23;10.83;;;12.50;73.70;;;;;;6198547;28;20468;-64
2021/11/07 16:42:42;;;;;;;9.30;7.80;;;12.50;74.50;;;;;;6202911;28;20484;-64
2021/11/07 16:45:47;;;;;;;7.20;6.30;;;12.40;75.10;;;;;;6189103;28;20821;-65
2021/11/07 16:48:52;;;;;;;7.63;6.60;;;12.40;75.60;;;;;;6202724;28;20461;-66
2021/11/07 16:51:59;;;;;;;8.07;7.27;;;12.30;76.10;;;;;;6202786;28;20552;-66
2021/11/07 16:55:07;;;;;;;13.27;11.83;;;12.20;76.80;;;;;;6201902;28;20501;-66
2021/11/07 16:58:13;;;;;;;10.03;7.30;;;12.20;77.80;;;;;;6178563;28;20488;-68
2021/11/07 17:01:22;;;;;;;9.13;7.87;;;12.10;78.60;;;;;;6178697;28;20482;-67
2021/11/07 17:04:28;;;;;;;10.37;9.10;;;12.10;79.80;;;;;;6178832;28;20481;-67
2021/11/07 17:07:39;;;;;;;8.73;7.83;;;12.00;80.80;;;;;;6178208;28;20955;-68
2021/11/07 17:10:43;;;;;;;8.40;7.60;;;11.90;81.80;;;;;;6198873;28;20555;-68
2021/11/07 17:13:46;;;;;;;10.20;8.33;;;11.80;82.90;;;;;;6202712;28;20460;-66